Time;durP1;ratioP1;P1;durP2;ratioP2;P2;SDS_P1;SDS_P2;PMS_P1;PMS_P2;Temp;Humidity;BMP_temperature;BMP_pressure;BME280_temperature;BME280_humidity;BME280_pressure;Samples;Min_cycle;Max_cycle;Signal;HPM_P1;HPM_P2
2022/05/29 00:00:27;;;;;;;5.00;2.40;;;;;;;19.01;45.15;100126.52;117368;1186;23541;-49
2022/05/29 00:02:54;;;;;;;3.30;1.50;;;;;;;18.96;45.25;100127.81;117127;1186;22937;-50
2022/05/29 00:05:20;;;;;;;3.20;1.70;;;;;;;18.93;45.32;100124.77;117051;1186;22929;-55
2022/05/29 00:07:48;;;;;;;4.20;1.40;;;;;;;18.92;45.42;100125.31;117285;1182;23567;-49
2022/05/29 00:10:15;;;;;;;4.40;1.80;;;;;;;18.94;45.50;100125.08;117267;1186;23548;-50
2022/05/29 00:12:43;;;;;;;2.30;1.70;;;;;;;18.95;45.49;100129.44;117164;1184;22985;-55
2022/05/29 00:15:13;;;;;;;4.40;1.80;;;;;;;18.95;45.43;100128.89;117289;1182;23444;-50
2022/05/29 00:17:40;;;;;;;2.50;1.70;;;;;;;18.92;45.45;100131.17;117392;1188;21982;-55
2022/05/29 00:20:08;;;;;;;3.90;1.60;;;;;;;18.92;45.58;100130.83;117389;1186;24152;-56
2022/05/29 00:22:35;;;;;;;4.40;2.00;;;;;;;18.91;45.59;100135.16;117374;1186;21849;-50
2022/05/29 00:25:05;;;;;;;3.30;1.80;;;;;;;18.89;45.73;100135.25;117305;1185;21852;-55
2022/05/29 00:27:32;;;;;;;4.50;2.30;;;;;;;18.87;45.69;100135.86;117312;1183;21862;-50
2022/05/29 00:29:58;;;;;;;3.00;1.90;;;;;;;18.86;45.70;100135.91;117331;1183;21851;-49
2022/05/29 00:32:26;;;;;;;4.10;1.70;;;;;;;18.87;45.81;100135.88;117333;1186;22906;-49
2022/05/29 00:34:53;;;;;;;7.80;1.80;;;;;;;18.88;45.80;100138.66;117299;1186;23446;-50
2022/05/29 00:37:19;;;;;;;2.30;1.50;;;;;;;18.87;45.85;100138.17;117317;1182;21838;-50
2022/05/29 00:39:47;;;;;;;2.30;1.60;;;;;;;18.87;45.86;100141.77;117238;1186;22916;-50
2022/05/29 00:42:15;;;;;;;3.30;2.00;;;;;;;18.85;45.89;100143.45;117317;1186;22107;-50
2022/05/29 00:44:42;;;;;;;6.30;2.00;;;;;;;18.85;46.06;100140.96;117294;1186;21842;-55
2022/05/29 00:47:10;;;;;;;4.60;1.80;;;;;;;18.84;45.95;100139.40;117297;1183;21908;-55
2022/05/29 00:49:38;;;;;;;4.20;1.80;;;;;;;18.83;46.02;100135.00;117051;1188;21965;-55
2022/05/29 00:52:28;;;;;;;7.80;1.90;;;;;;;18.84;46.03;100139.77;117242;1186;24233;-50
2022/05/29 00:55:00;;;;;;;3.30;2.30;;;;;;;18.81;46.08;100137.60;117393;1186;22883;-50
2022/05/29 00:57:29;;;;;;;4.70;2.00;;;;;;;18.76;46.15;100141.05;117070;1182;24265;-55
2022/05/29 00:59:59;;;;;;;4.00;2.10;;;;;;;18.72;46.09;100137.00;117084;1186;21885;-55
2022/05/29 01:02:26;;;;;;;3.60;2.20;;;;;;;18.70;46.13;100134.44;117344;1186;22922;-50
2022/05/29 01:04:53;;;;;;;7.10;2.30;;;;;;;18.67;46.24;100133.85;117367;1183;22985;-55
2022/05/29 01:07:20;;;;;;;4.40;2.20;;;;;;;18.64;46.31;100131.16;117350;1183;23550;-55
2022/05/29 01:09:48;;;;;;;3.90;2.30;;;;;;;18.61;46.27;100133.09;117323;1182;22908;-55
2022/05/29 01:12:41;;;;;;;4.60;2.40;;;;;;;18.58;46.25;100131.61;117390;1185;22853;-55
2022/05/29 01:15:17;;;;;;;3.70;2.20;;;;;;;18.55;46.32;100134.09;117272;1183;22068;-51
2022/05/29 01:17:56;;;;;;;3.90;2.20;;;;;;;18.52;46.37;100135.86;117312;1186;23554;-49
2022/05/29 01:20:37;;;;;;;3.50;2.00;;;;;;;18.48;46.44;100129.63;117308;1186;23017;-49
2022/05/29 01:23:07;;;;;;;3.40;2.10;;;;;;;18.43;46.46;100125.41;117271;1183;22646;-50
2022/05/29 01:25:59;;;;;;;3.90;2.20;;;;;;;18.42;46.38;100125.13;117331;1186;21963;-55
2022/05/29 01:28:41;;;;;;;4.20;1.90;;;;;;;18.38;46.51;100121.80;117300;1182;22958;-55
2022/05/29 01:31:27;;;;;;;4.80;1.90;;;;;;;18.32;46.57;100123.14;117426;1185;22104;-50
2022/05/29 01:34:19;;;;;;;5.30;2.00;;;;;;;18.26;46.46;100121.09;117316;1186;22116;-55
2022/05/29 01:37:09;;;;;;;3.00;1.60;;;;;;;18.19;46.56;100134.77;117357;1186;21925;-50
2022/05/29 01:39:43;;;;;;;3.50;1.40;;;;;;;18.10;46.60;100136.96;117334;1186;21864;-56
2022/05/29 01:42:17;;;;;;;3.20;1.20;;;;;;;18.00;46.56;100139.89;117362;1183;22521;-57
2022/05/29 01:44:47;;;;;;;3.40;1.20;;;;;;;17.91;46.49;100145.11;117412;1182;22922;-53
2022/05/29 01:47:20;;;;;;;5.40;2.00;;;;;;;17.84;46.54;100144.36;117419;1186;21896;-50
2022/05/29 01:49:50;;;;;;;6.40;1.30;;;;;;;17.79;46.59;100143.89;117171;1185;22081;-50
2022/05/29 01:52:21;;;;;;;3.00;1.30;;;;;;;17.65;46.63;100146.98;117436;1182;22887;-50
2022/05/29 01:54:55;;;;;;;2.40;1.20;;;;;;;17.57;46.75;100150.55;117066;1186;24153;-56
2022/05/29 01:57:24;;;;;;;2.90;1.60;;;;;;;17.50;46.63;100144.81;117212;1187;22184;-55
2022/05/29 02:00:08;;;;;;;5.50;1.30;;;;;;;17.45;46.77;100149.31;117360;1183;23551;-55
2022/05/29 02:02:44;;;;;;;2.60;1.30;;;;;;;17.43;46.81;100158.46;117157;1188;23478;-56
2022/05/29 02:05:14;;;;;;;2.50;1.50;;;;;;;17.43;46.95;100158.98;117206;1186;22983;-50
2022/05/29 02:07:48;;;;;;;2.90;1.50;;;;;;;17.41;46.94;100166.16;117011;1185;23699;-55
2022/05/29 02:10:33;;;;;;;4.60;1.40;;;;;;;17.38;46.90;100174.98;117070;1183;21866;-56
2022/05/29 02:13:10;;;;;;;2.90;1.40;;;;;;;17.44;46.78;100178.45;117038;1186;22914;-55
2022/05/29 02:15:39;;;;;;;2.20;1.40;;;;;;;17.49;46.80;100184.58;117202;1186;22957;-56
2022/05/29 02:18:10;;;;;;;2.60;1.30;;;;;;;17.46;46.72;100183.83;117260;1186;22908;-51
2022/05/29 02:20:41;;;;;;;6.40;2.40;;;;;;;17.50;46.77;100181.02;117301;1183;21859;-56
2022/05/29 02:23:13;;;;;;;;;;;;;;;17.48;46.65;100183.73;117351;1183;22945;-56
2022/05/29 02:25:40;;;;;;;6.10;2.10;;;;;;;17.48;46.73;100186.96;117339;1183;23485;-56
2022/05/29 02:28:21;;;;;;;4.90;1.30;;;;;;;17.44;46.68;100191.90;117278;1181;22902;-50
2022/05/29 02:31:17;;;;;;;2.80;1.60;;;;;;;17.43;46.73;100196.41;117337;1186;23461;-56
2022/05/29 02:33:51;;;;;;;3.30;1.70;;;;;;;17.39;46.79;100194.11;117174;1182;21874;-56
2022/05/29 02:36:29;;;;;;;4.50;1.60;;;;;;;17.37;46.79;100196.80;117070;1186;23547;-56
2022/05/29 02:38:59;;;;;;;3.40;1.70;;;;;;;17.27;46.97;100195.84;117176;1184;23357;-56
2022/05/29 02:41:33;;;;;;;2.80;1.50;;;;;;;17.22;47.08;100191.09;117101;1186;23547;-56
2022/05/29 02:44:24;;;;;;;3.20;1.40;;;;;;;17.17;47.03;100191.29;117175;1186;21854;-51
2022/05/29 02:47:05;;;;;;;3.80;1.50;;;;;;;17.13;47.15;100202.31;117192;1186;22891;-56
2022/05/29 02:49:42;;;;;;;3.40;1.70;;;;;;;17.09;47.16;100204.02;117297;1185;22985;-50
2022/05/29 02:52:12;;;;;;;6.60;2.00;;;;;;;17.08;47.14;100202.65;117186;1186;21855;-50
2022/05/29 02:54:38;;;;;;;4.30;2.00;;;;;;;17.04;47.16;100202.98;117297;1186;23712;-51
2022/05/29 02:57:06;;;;;;;4.30;1.70;;;;;;;17.00;47.25;100210.64;117177;1186;21858;-50
2022/05/29 02:59:41;;;;;;;3.80;1.90;;;;;;;16.97;47.24;100212.89;117170;1183;22630;-51
2022/05/29 03:02:13;;;;;;;3.90;1.90;;;;;;;16.96;47.37;100218.23;116973;1182;23465;-50
2022/05/29 03:05:13;;;;;;;6.50;2.00;;;;;;;16.94;47.44;100220.58;116952;1187;21860;-50
2022/05/29 03:08:18;;;;;;;3.60;2.00;;;;;;;16.92;47.33;100224.20;117142;1186;22443;-50
2022/05/29 03:10:50;;;;;;;7.30;2.50;;;;;;;16.90;47.43;100221.98;117284;1181;22903;-51
2022/05/29 03:13:31;;;;;;;4.90;2.60;;;;;;;16.90;47.42;100230.52;117833;1185;21954;-57
2022/05/29 03:16:15;;;;;;;6.80;3.00;;;;;;;16.89;47.53;100236.04;117320;1182;23555;-56
2022/05/29 03:19:02;;;;;;;5.90;2.80;;;;;;;16.89;47.58;100243.31;117283;1186;23463;-50
2022/05/29 03:21:39;;;;;;;5.30;2.50;;;;;;;16.92;47.55;100251.88;117283;1183;22817;-56
2022/05/29 03:24:24;;;;;;;4.70;2.70;;;;;;;16.89;47.60;100262.23;117334;1185;21924;-56
2022/05/29 03:27:10;;;;;;;7.00;2.80;;;;;;;16.85;47.62;100270.20;117227;1182;22641;-51
2022/05/29 03:29:43;;;;;;;6.90;2.80;;;;;;;16.85;47.57;100283.13;117210;1184;21900;-56
2022/05/29 03:32:10;;;;;;;6.80;2.90;;;;;;;16.82;47.70;100289.48;117301;1182;22642;-57
2022/05/29 03:34:37;;;;;;;5.10;2.70;;;;;;;16.79;47.73;100297.87;117147;1188;23438;-56
2022/05/29 03:37:06;;;;;;;7.30;2.60;;;;;;;16.79;47.68;100307.67;117388;1186;24160;-52
2022/05/29 03:39:33;;;;;;;5.50;3.00;;;;;;;16.75;47.67;100320.41;117371;1186;21853;-57
2022/05/29 03:42:00;;;;;;;6.80;3.20;;;;;;;16.68;47.68;100333.41;117358;1180;22960;-56
2022/05/29 03:44:27;;;;;;;4.00;2.40;;;;;;;16.63;47.77;100343.89;117263;1186;21962;-51
2022/05/29 03:46:54;;;;;;;5.80;2.60;;;;;;;16.60;47.76;100347.88;117277;1183;24168;-50
2022/05/29 03:49:22;;;;;;;6.90;2.30;;;;;;;16.60;47.74;100347.19;117340;1183;23618;-51
2022/05/29 03:51:49;;;;;;;6.80;2.90;;;;;;;16.58;47.90;100344.05;117316;1183;23828;-56
2022/05/29 03:54:16;;;;;;;4.60;2.70;;;;;;;16.61;48.02;100338.66;117182;1182;23440;-54
2022/05/29 03:56:43;;;;;;;6.30;2.70;;;;;;;16.67;48.04;100332.39;117334;1183;22877;-54
2022/05/29 03:59:10;;;;;;;7.70;2.80;;;;;;;16.74;48.09;100329.46;117335;1183;22897;-57
2022/05/29 04:01:37;;;;;;;11.30;3.40;;;;;;;16.80;48.14;100326.20;117158;1186;22959;-54
2022/05/29 04:04:04;;;;;;;6.40;3.40;;;;;;;16.87;48.15;100323.12;117091;1188;23459;-57
2022/05/29 04:06:34;;;;;;;6.40;3.10;;;;;;;16.93;48.05;100317.21;117250;1186;22150;-56
2022/05/29 04:12:07;;;;;;;10.10;3.00;;;;;;;17.03;48.13;100319.70;117194;1182;23529;-57
2022/05/29 04:14:37;;;;;;;4.80;2.50;;;;;;;17.08;48.19;100316.48;117113;1186;21893;-55
2022/05/29 04:17:04;;;;;;;8.30;3.00;;;;;;;17.11;48.20;100313.15;117319;1180;22960;-56
2022/05/29 04:19:31;;;;;;;5.40;2.80;;;;;;;17.15;48.18;100315.50;117194;1183;22967;-54
2022/05/29 04:21:58;;;;;;;4.50;2.70;;;;;;;17.20;48.21;100316.54;117005;1185;23548;-57
2022/05/29 04:24:25;;;;;;;4.40;2.30;;;;;;;17.25;48.17;100314.17;117304;1185;21883;-54
2022/05/29 04:26:52;;;;;;;7.90;2.90;;;;;;;17.31;48.28;100315.02;117373;1185;24228;-54
2022/05/29 04:29:20;;;;;;;5.00;2.90;;;;;;;17.32;48.24;100317.27;117261;1182;23692;-56
2022/05/29 04:34:37;;;;;;;5.80;2.60;;;;;;;17.37;48.29;100312.64;117240;1188;23618;-56
2022/05/29 04:37:04;;;;;;;7.50;2.80;;;;;;;17.42;48.43;100312.80;117386;1183;22091;-57
2022/05/29 04:39:34;;;;;;;4.70;2.80;;;;;;;17.46;48.39;100308.33;117422;1182;23534;-57
2022/05/29 04:42:01;;;;;;;5.00;3.30;;;;;;;17.49;48.35;100301.50;117410;1184;21849;-56
2022/05/29 04:44:29;;;;;;;5.50;2.40;;;;;;;17.55;48.26;100296.65;117333;1180;21852;-51
2022/05/29 04:46:58;;;;;;;3.80;2.50;;;;;;;17.59;48.27;100290.08;117393;1181;21870;-51
2022/05/29 04:49:25;;;;;;;5.50;2.80;;;;;;;17.61;48.32;100286.95;117373;1186;23465;-57
2022/05/29 04:51:52;;;;;;;4.80;2.60;;;;;;;17.61;48.32;100285.02;117303;1186;23506;-56
2022/05/29 04:54:19;;;;;;;5.00;2.40;;;;;;;17.62;48.37;100279.50;117017;1183;23625;-55
2022/05/29 04:56:47;;;;;;;3.20;1.90;;;;;;;17.63;48.39;100277.48;117055;1186;21976;-56
2022/05/29 04:59:15;;;;;;;3.70;2.40;;;;;;;17.64;48.41;100273.89;117283;1185;22804;-52
2022/05/29 05:01:42;;;;;;;3.40;2.20;;;;;;;17.69;48.44;100266.02;117073;1185;21902;-51
2022/05/29 05:04:09;;;;;;;4.50;2.20;;;;;;;17.77;48.49;100266.95;117232;1183;22643;-51
2022/05/29 05:06:36;;;;;;;3.70;2.10;;;;;;;17.83;48.49;100269.00;117198;1186;23437;-57
2022/05/29 05:09:03;;;;;;;4.70;2.20;;;;;;;17.89;48.48;100270.30;117226;1185;24158;-56
2022/05/29 05:11:31;;;;;;;4.70;2.00;;;;;;;17.95;48.55;100269.52;117170;1186;22791;-52
2022/05/29 05:13:59;;;;;;;7.10;2.60;;;;;;;18.01;48.57;100269.84;117248;1186;23465;-55
2022/05/29 05:16:26;;;;;;;6.10;2.30;;;;;;;18.05;48.47;100271.42;117302;1185;21854;-58
2022/05/29 05:18:54;;;;;;;3.60;2.20;;;;;;;18.09;48.44;100272.48;117027;1187;21977;-57
2022/05/29 05:21:22;;;;;;;3.20;1.60;;;;;;;18.11;48.44;100270.23;117098;1186;21866;-57
2022/05/29 05:23:49;;;;;;;4.40;3.10;;;;;;;18.12;48.34;100273.23;117227;1186;21863;-52
2022/05/29 05:26:19;;;;;;;5.50;2.30;;;;;;;18.10;48.46;100277.20;117139;1186;21894;-51
2022/05/29 05:28:46;;;;;;;6.40;2.60;;;;;;;18.11;48.50;100270.27;117222;1182;22947;-52
2022/05/29 05:31:13;;;;;;;5.00;2.90;;;;;;;18.10;48.39;100257.85;117189;1185;24253;-56
2022/05/29 05:33:40;;;;;;;3.10;2.10;;;;;;;18.13;48.40;100254.53;117239;1182;23395;-51
2022/05/29 05:36:07;;;;;;;7.10;3.80;;;;;;;18.13;48.38;100259.49;117047;1183;22162;-57
2022/05/29 05:38:34;;;;;;;4.20;2.40;;;;;;;18.15;48.52;100268.84;117216;1182;23650;-57
2022/05/29 05:41:01;;;;;;;3.80;2.20;;;;;;;18.17;48.51;100264.46;117091;1186;21988;-52
2022/05/29 05:43:31;;;;;;;4.10;2.10;;;;;;;18.18;48.48;100263.36;117095;1186;22099;-56
2022/05/29 05:45:58;;;;;;;6.70;2.90;;;;;;;18.20;48.47;100258.84;117121;1184;23569;-51
2022/05/29 05:48:29;;;;;;;5.80;2.30;;;;;;;18.22;48.52;100261.05;117054;1188;21996;-57
2022/05/29 05:50:57;;;;;;;;;;;;;;;18.25;48.48;100261.63;117244;1182;21897;-57
2022/05/29 05:53:24;;;;;;;3.80;1.70;;;;;;;18.28;48.50;100263.64;117284;1183;22985;-50
2022/05/29 05:55:51;;;;;;;3.30;1.90;;;;;;;18.25;48.41;100268.55;117142;1186;21878;-57
2022/05/29 05:58:19;;;;;;;5.60;2.70;;;;;;;18.22;48.38;100272.21;116993;1186;23996;-57
2022/05/29 06:00:46;;;;;;;3.80;1.90;;;;;;;18.20;48.48;100276.09;117225;1184;21843;-57
2022/05/29 06:03:13;;;;;;;2.40;1.70;;;;;;;18.16;48.47;100281.41;117287;1186;23436;-56
2022/05/29 06:05:41;;;;;;;5.50;1.90;;;;;;;18.13;48.39;100289.15;117128;1182;22928;-57
2022/05/29 06:08:08;;;;;;;2.50;1.80;;;;;;;18.11;48.49;100292.27;117138;1183;22637;-49
2022/05/29 06:10:35;;;;;;;3.30;1.80;;;;;;;18.08;48.44;100306.44;117243;1186;22972;-49
2022/05/29 06:13:03;;;;;;;3.00;1.80;;;;;;;18.07;48.47;100313.60;117341;1183;21979;-56
2022/05/29 06:15:30;;;;;;;3.50;1.90;;;;;;;18.07;48.53;100315.73;117311;1181;23669;-50
2022/05/29 06:17:57;;;;;;;3.00;1.80;;;;;;;18.08;48.59;100321.20;117017;1185;21864;-57
2022/05/29 06:20:27;;;;;;;4.40;2.00;;;;;;;18.09;48.54;100324.86;117223;1186;21848;-56
2022/05/29 06:22:54;;;;;;;3.00;2.00;;;;;;;18.09;48.60;100330.02;117324;1183;22921;-49
2022/05/29 06:25:21;;;;;;;3.40;2.20;;;;;;;18.09;48.59;100332.48;117117;1186;23547;-55
2022/05/29 06:27:48;;;;;;;3.90;2.40;;;;;;;18.11;48.69;100331.33;117121;1184;21912;-57
2022/05/29 06:30:16;;;;;;;6.40;2.30;;;;;;;18.12;48.60;100330.02;117322;1185;22915;-56
2022/05/29 06:32:43;;;;;;;3.30;2.20;;;;;;;18.13;48.65;100325.02;117236;1182;23439;-50
2022/05/29 06:35:12;;;;;;;3.80;2.20;;;;;;;18.16;48.73;100317.27;117262;1183;24142;-56
2022/05/29 06:37:39;;;;;;;3.20;1.80;;;;;;;18.19;48.79;100310.93;117217;1185;23481;-57
2022/05/29 06:40:07;;;;;;;2.90;1.90;;;;;;;18.26;48.76;100307.75;117151;1186;23566;-55
2022/05/29 06:42:35;;;;;;;5.00;2.30;;;;;;;18.33;48.83;100316.31;117166;1182;21964;-49
2022/05/29 06:45:03;;;;;;;5.10;2.30;;;;;;;18.42;48.84;100320.39;117108;1186;23681;-57
2022/05/29 06:47:30;;;;;;;3.40;2.00;;;;;;;18.50;48.87;100327.29;117409;1182;21878;-49
2022/05/29 06:49:57;;;;;;;3.20;2.00;;;;;;;18.57;48.89;100333.91;117455;1183;23544;-50
2022/05/29 06:52:24;;;;;;;4.10;2.00;;;;;;;18.65;48.93;100336.20;117303;1186;21858;-56
2022/05/29 06:54:51;;;;;;;5.40;2.40;;;;;;;18.72;48.84;100333.04;117143;1184;22922;-50
2022/05/29 06:57:36;;;;;;;3.40;2.20;;;;;;;18.74;48.91;100335.41;117237;1182;22540;-49
2022/05/29 07:08:29;;;;;;;6.90;1.70;;;;;;;18.93;48.83;100326.69;117225;1183;21881;-57
2022/05/29 07:11:01;;;;;;;4.30;2.60;;;;;;;18.96;49.03;100329.59;117100;1182;22090;-56
2022/05/29 07:13:29;;;;;;;2.70;1.90;;;;;;;19.00;49.02;100333.33;119322;1183;21767;-51
2022/05/29 07:15:56;;;;;;;3.60;2.00;;;;;;;19.06;48.93;100334.85;119101;1184;21806;-57
2022/05/29 07:18:23;;;;;;;3.10;1.90;;;;;;;19.12;49.02;100341.50;119327;1182;21769;-52
2022/05/29 07:20:50;;;;;;;4.20;2.10;;;;;;;19.17;49.00;100348.34;118329;1185;21867;-57
2022/05/29 07:23:17;;;;;;;1.80;1.50;;;;;;;19.20;48.97;100351.21;117122;1186;21855;-51
2022/05/29 07:25:44;;;;;;;4.30;2.10;;;;;;;19.22;48.90;100348.84;117662;1185;21851;-58
2022/05/29 07:28:11;;;;;;;3.30;1.80;;;;;;;19.24;48.91;100353.16;117367;1185;21884;-50
2022/05/29 07:30:39;;;;;;;3.10;1.90;;;;;;;19.24;48.92;100354.58;117325;1182;21864;-51
2022/05/29 07:33:07;;;;;;;4.80;2.20;;;;;;;19.24;48.93;100358.16;117131;1184;21854;-50
2022/05/29 07:35:35;;;;;;;3.90;2.50;;;;;;;19.21;48.92;100365.73;117190;1183;22873;-56
2022/05/29 07:38:02;;;;;;;3.50;2.00;;;;;;;19.20;48.91;100364.74;117268;1185;21869;-50
2022/05/29 07:40:29;;;;;;;4.40;2.20;;;;;;;19.19;48.92;100370.66;117124;1183;22923;-56
2022/05/29 07:45:44;;;;;;;4.00;2.30;;;;;;;19.14;48.76;100378.16;117048;1187;21906;-52
2022/05/29 07:48:12;;;;;;;3.90;2.30;;;;;;;19.05;48.66;100384.29;116963;1186;22724;-51
2022/05/29 07:50:39;;;;;;;3.00;1.80;;;;;;;18.96;48.70;100387.39;117088;1188;21852;-57
2022/05/29 07:53:06;;;;;;;3.80;2.60;;;;;;;18.86;48.71;100393.84;117154;1183;21851;-57
2022/05/29 07:55:33;;;;;;;6.20;2.70;;;;;;;18.80;48.67;100397.52;117223;1183;23803;-52
2022/05/29 07:58:00;;;;;;;4.70;2.70;;;;;;;18.77;48.80;100403.34;117098;1185;21859;-57
2022/05/29 08:00:27;;;;;;;8.70;2.40;;;;;;;18.80;48.82;100406.41;117377;1182;23553;-57
2022/05/29 08:02:54;;;;;;;6.40;2.40;;;;;;;18.81;48.95;100412.76;117106;1183;22996;-52
2022/05/29 08:05:21;;;;;;;4.30;2.30;;;;;;;18.79;48.93;100421.23;117052;1187;23631;-52
2022/05/29 08:07:49;;;;;;;5.20;2.50;;;;;;;18.75;48.98;100421.38;117247;1188;21849;-51
2022/05/29 08:10:17;;;;;;;3.20;2.70;;;;;;;18.72;48.98;100422.77;117334;1182;23554;-52
2022/05/29 08:12:44;;;;;;;4.90;2.40;;;;;;;18.74;49.07;100428.91;117367;1185;21853;-51
2022/05/29 08:15:11;;;;;;;5.60;2.50;;;;;;;18.78;49.13;100432.64;117291;1183;23544;-51
2022/05/29 08:17:39;;;;;;;3.40;2.30;;;;;;;18.81;49.17;100430.16;117281;1185;21861;-52
2022/05/29 08:20:06;;;;;;;5.50;3.00;;;;;;;18.83;49.22;100425.81;117282;1185;21852;-52
2022/05/29 08:22:33;;;;;;;5.20;2.70;;;;;;;18.86;49.31;100420.70;117283;1183;21863;-51
2022/05/29 08:30:38;;;;;;;4.60;2.90;;;;;;;19.14;49.68;100439.02;117300;1185;21904;-51
2022/05/29 08:33:08;;;;;;;5.50;3.10;;;;;;;19.29;49.76;100440.62;117037;1188;21927;-51
2022/05/29 08:35:36;;;;;;;4.40;3.30;;;;;;;19.43;49.74;100440.14;117073;1187;21868;-52
2022/05/29 08:38:04;;;;;;;4.90;2.90;;;;;;;19.54;49.74;100437.14;118737;1184;23700;-56
2022/05/29 08:40:31;;;;;;;5.70;2.90;;;;;;;19.69;49.75;100434.96;117363;1183;23547;-56
2022/05/29 08:42:58;;;;;;;4.70;2.80;;;;;;;19.84;49.87;100436.38;117349;1185;22928;-56
2022/05/29 08:45:26;;;;;;;4.50;2.80;;;;;;;19.97;49.91;100435.92;117337;1186;22823;-56
2022/05/29 08:47:53;;;;;;;3.90;2.60;;;;;;;20.03;49.67;100435.60;117382;1182;23498;-55
2022/05/29 08:50:24;;;;;;;4.60;3.00;;;;;;;20.07;49.74;100432.02;117299;1182;21883;-55
2022/05/29 08:53:03;;;;;;;11.30;5.70;;;;;;;20.13;49.78;100421.41;116958;1186;21856;-52
2022/05/29 08:55:49;;;;;;;5.90;3.10;;;;;;;20.30;50.06;100412.15;117366;1186;21858;-56
2022/05/29 08:58:36;;;;;;;4.60;3.00;;;;;;;20.52;50.21;100406.15;117282;1185;21985;-52
2022/05/29 09:01:16;;;;;;;6.70;3.50;;;;;;;20.73;50.04;100400.23;117222;1186;21849;-56
2022/05/29 09:04:03;;;;;;;6.40;3.50;;;;;;;20.87;50.03;100395.21;117368;1186;22969;-52
2022/05/29 09:06:35;;;;;;;6.00;3.50;;;;;;;21.08;50.26;100392.83;117391;1184;21886;-54
2022/05/29 09:09:21;;;;;;;15.90;5.70;;;;;;;21.32;50.43;100396.46;117396;1183;24159;-53
2022/05/29 09:11:52;;;;;;;18.90;7.20;;;;;;;21.56;50.33;100410.29;117372;1186;23615;-57
2022/05/29 09:14:41;;;;;;;18.00;6.60;;;;;;;21.75;50.35;100432.64;117402;1182;21849;-56
2022/05/29 09:17:18;;;;;;;6.60;3.60;;;;;;;21.91;50.34;100442.77;117367;1185;21855;-56
2022/05/29 09:19:53;;;;;;;6.50;2.90;;;;;;;22.07;50.30;100442.15;117175;1183;23547;-56
2022/05/29 09:22:38;;;;;;;3.20;2.20;;;;;;;22.19;50.11;100439.34;117381;1184;22913;-55
2022/05/29 09:25:29;;;;;;;3.60;2.20;;;;;;;22.23;49.97;100423.50;117323;1182;23685;-56
2022/05/29 09:27:59;;;;;;;2.80;2.10;;;;;;;22.26;49.88;100421.91;119174;1185;23438;-54
2022/05/29 09:30:26;;;;;;;5.50;2.50;;;;;;;22.26;49.73;100424.93;117321;1185;23617;-54
2022/05/29 09:33:24;;;;;;;5.10;2.30;;;;;;;22.31;49.85;100427.36;117411;1182;23673;-54
2022/05/29 09:35:57;;;;;;;2.30;1.90;;;;;;;22.38;49.77;100422.42;117373;1185;22322;-54
2022/05/29 09:38:42;;;;;;;6.00;2.40;;;;;;;22.48;49.77;100424.89;117363;1182;21856;-56
2022/05/29 09:41:17;;;;;;;3.20;2.20;;;;;;;22.60;49.72;100424.52;117053;1186;22091;-54
2022/05/29 09:44:09;;;;;;;4.40;2.10;;;;;;;22.77;50.01;100428.85;117427;1182;23446;-56
2022/05/29 09:46:37;;;;;;;3.50;2.20;;;;;;;22.98;50.04;100429.54;117203;1185;22505;-55
2022/05/29 09:52:13;;;;;;;4.40;2.40;;;;;;;23.48;50.33;100429.53;117156;1185;21885;-55
2022/05/29 09:55:02;;;;;;;3.00;2.00;;;;;;;23.78;50.27;100426.32;117355;1182;23540;-54
2022/05/29 09:57:42;;;;;;;4.30;2.10;;;;;;;23.98;49.98;100420.88;117355;1182;21979;-55
2022/05/29 10:00:36;;;;;;;2.90;1.90;;;;;;;24.16;49.90;100418.39;117342;1185;22915;-54
2022/05/29 10:03:05;;;;;;;2.80;2.30;;;;;;;24.40;49.95;100417.48;117306;1186;22919;-55
2022/05/29 10:05:35;;;;;;;3.70;1.80;;;;;;;24.58;50.02;100412.14;117297;1186;22988;-54
2022/05/29 10:08:28;;;;;;;3.20;1.80;;;;;;;24.72;49.88;100413.47;117340;1182;22542;-53
2022/05/29 10:10:55;;;;;;;4.70;2.00;;;;;;;24.82;49.45;100423.20;117391;1183;22816;-56
2022/05/29 10:13:39;;;;;;;5.70;1.90;;;;;;;24.88;49.38;100431.39;117127;1186;21912;-57
2022/05/29 10:16:07;;;;;;;7.00;1.70;;;;;;;24.91;49.33;100431.89;117238;1185;23572;-56
2022/05/29 10:18:36;;;;;;;2.70;1.60;;;;;;;24.96;49.29;100417.36;117338;1182;22623;-54
2022/05/29 10:21:06;;;;;;;2.60;1.70;;;;;;;25.12;49.47;100413.86;117298;1183;22651;-56
2022/05/29 10:23:35;;;;;;;5.50;1.70;;;;;;;25.28;49.46;100408.71;117321;1185;22616;-53
2022/05/29 10:26:29;;;;;;;4.60;1.80;;;;;;;25.49;49.46;100402.91;117094;1183;21850;-56
2022/05/29 10:28:57;;;;;;;2.80;1.70;;;;;;;25.77;49.51;100398.34;117315;1182;22811;-53
2022/05/29 10:31:27;;;;;;;4.30;1.70;;;;;;;25.98;49.40;100394.73;117215;1186;22921;-54
2022/05/29 10:34:14;;;;;;;2.10;1.40;;;;;;;26.10;49.06;100388.75;117100;1185;21862;-54
2022/05/29 10:36:47;;;;;;;3.50;1.70;;;;;;;26.13;48.92;100385.90;117315;1185;21865;-53
2022/05/29 10:39:23;;;;;;;2.30;1.40;;;;;;;26.18;48.96;100380.67;117234;1186;21863;-53
2022/05/29 10:41:52;;;;;;;2.40;1.30;;;;;;;26.23;48.83;100372.00;117203;1186;23544;-56
2022/05/29 10:44:46;;;;;;;2.20;1.30;;;;;;;26.40;48.97;100362.02;117322;1185;21856;-55
2022/05/29 10:47:16;;;;;;;2.70;1.20;;;;;;;26.72;49.12;100359.11;117275;1185;23469;-57
2022/05/29 10:50:12;;;;;;;2.30;1.60;;;;;;;27.01;49.04;100359.34;117316;1185;21900;-57
2022/05/29 10:52:54;;;;;;;2.70;1.30;;;;;;;27.32;48.90;100356.83;117256;1185;21862;-53
2022/05/29 10:56:02;;;;;;;3.10;1.40;;;;;;;27.54;48.84;100352.14;117124;1185;22620;-53
2022/05/29 10:58:33;;;;;;;2.70;1.40;;;;;;;27.84;48.81;100348.18;117214;1186;21862;-54
2022/05/29 11:04:13;;;;;;;2.50;1.50;;;;;;;28.34;48.57;100346.95;117164;1186;23465;-54
2022/05/29 11:06:59;;;;;;;2.20;1.30;;;;;;;28.49;48.45;100341.83;116948;1185;21858;-58
2022/05/29 11:09:36;;;;;;;2.30;1.30;;;;;;;28.58;48.28;100343.18;117250;1183;23642;-56
2022/05/29 11:12:26;;;;;;;2.60;1.50;;;;;;;28.71;48.12;100343.70;116977;1184;22320;-55
2022/05/29 11:14:57;;;;;;;2.40;1.00;;;;;;;28.87;48.33;100341.92;117232;1185;22104;-56
2022/05/29 11:17:39;;;;;;;3.70;1.40;;;;;;;29.02;48.00;100345.41;117306;1185;21867;-55
2022/05/29 11:20:56;;;;;;;2.10;1.30;;;;;;;29.12;47.85;100347.61;117311;1185;21849;-56
2022/05/29 11:23:38;;;;;;;2.80;1.60;;;;;;;29.26;47.87;100356.33;116772;1188;21970;-56
2022/05/29 11:26:30;;;;;;;2.10;1.10;;;;;;;29.33;47.61;100355.50;116764;1190;23732;-56
2022/05/29 11:29:29;;;;;;;1.50;0.90;;;;;;;29.37;47.55;100357.27;117156;1185;22423;-57
2022/05/29 11:32:15;;;;;;;1.30;0.90;;;;;;;29.60;47.90;100351.94;117255;1184;22902;-56
2022/05/29 11:35:01;;;;;;;2.20;1.10;;;;;;;29.84;48.01;100352.21;117023;1188;23009;-57
2022/05/29 11:37:41;;;;;;;2.20;1.20;;;;;;;30.14;47.83;100348.70;117094;1185;22913;-56
2022/05/29 11:40:26;;;;;;;2.20;1.30;;;;;;;30.39;47.65;100344.12;117099;1185;21852;-57
2022/05/29 11:43:24;;;;;;;2.00;1.10;;;;;;;30.54;47.42;100350.67;117288;1186;23490;-56
2022/05/29 11:51:45;;;;;;;3.30;1.10;;;;;;;30.94;47.18;100355.48;117174;1186;23470;-57
2022/05/29 11:54:27;;;;;;;3.80;1.10;;;;;;;31.06;46.96;100356.52;117238;1186;23053;-58
2022/05/29 11:56:57;;;;;;;2.20;1.50;;;;;;;31.12;46.76;100344.83;117201;1182;21853;-58
2022/05/29 11:59:54;;;;;;;7.30;1.60;;;;;;;31.14;46.56;100350.37;117249;1186;22877;-55
2022/05/29 12:02:29;;;;;;;3.70;1.30;;;;;;;31.12;46.24;100348.43;117378;1186;22919;-55
2022/05/29 12:05:02;;;;;;;2.90;1.30;;;;;;;30.93;45.92;100346.67;117137;1184;21859;-57
2022/05/29 12:07:35;;;;;;;2.10;1.10;;;;;;;30.69;45.82;100351.80;116995;1185;23618;-55
2022/05/29 12:10:10;;;;;;;4.30;1.70;;;;;;;30.50;45.73;100353.00;117083;1185;23629;-57
2022/05/29 12:12:47;;;;;;;2.60;1.30;;;;;;;30.33;45.62;100358.33;117221;1185;23455;-55
2022/05/29 12:15:17;;;;;;;3.10;1.60;;;;;;;30.15;45.60;100358.20;117310;1181;22634;-54
2022/05/29 12:18:02;;;;;;;2.40;1.30;;;;;;;29.92;45.49;100352.92;117338;1185;21863;-54